createdAt,value
2022-11-24T00:00:52.655Z,20.55
2022-11-24T00:03:19.426Z,20.54
2022-11-24T00:05:45.922Z,20.54
2022-11-24T00:08:12.946Z,20.54
2022-11-24T00:10:39.329Z,20.54
2022-11-24T00:13:05.732Z,20.53
2022-11-24T00:15:32.128Z,20.53
2022-11-24T00:17:58.535Z,20.53
2022-11-24T00:20:24.877Z,20.52
2022-11-24T00:22:51.211Z,20.52
2022-11-24T00:25:17.564Z,20.52
2022-11-24T00:27:43.957Z,20.51
2022-11-24T00:30:10.858Z,20.51
2022-11-24T00:32:37.234Z,20.51
2022-11-24T00:35:04.141Z,20.51
2022-11-24T00:37:30.883Z,20.49
2022-11-24T00:39:57.326Z,20.49
2022-11-24T00:42:23.702Z,20.48
2022-11-24T00:44:50.043Z,20.48
2022-11-24T00:47:16.483Z,20.49
2022-11-24T00:49:42.893Z,20.48
2022-11-24T00:52:09.257Z,20.47
2022-11-24T00:54:35.773Z,20.46
2022-11-24T00:57:02.322Z,20.46
2022-11-24T00:59:28.764Z,20.45
2022-11-24T01:01:55.224Z,20.45
2022-11-24T01:04:22.147Z,20.44
2022-11-24T01:06:48.559Z,20.44
2022-11-24T01:09:14.951Z,20.43
2022-11-24T01:11:59.974Z,20.42
2022-11-24T01:14:26.876Z,20.43
2022-11-24T01:16:53.642Z,20.43
2022-11-24T01:19:20.638Z,20.42
2022-11-24T01:21:47.306Z,20.42
2022-11-24T01:24:14.562Z,20.40
2022-11-24T01:26:41.081Z,20.39
2022-11-24T01:29:07.790Z,20.38
2022-11-24T01:31:34.223Z,20.37
2022-11-24T01:34:00.604Z,20.37
2022-11-24T01:36:27.014Z,20.37
2022-11-24T01:38:53.369Z,20.37
2022-11-24T01:41:22.596Z,20.36
2022-11-24T01:43:50.607Z,20.35
2022-11-24T01:46:25.590Z,20.36
2022-11-24T01:49:11.806Z,20.35
2022-11-24T01:52:04.583Z,20.34
2022-11-24T01:54:36.178Z,20.32
2022-11-24T01:57:26.354Z,20.32
2022-11-24T01:59:57.439Z,20.31
2022-11-24T02:02:25.735Z,20.31
2022-11-24T02:04:52.428Z,20.31
2022-11-24T02:07:18.897Z,20.31
2022-11-24T02:09:51.117Z,20.30
2022-11-24T02:12:17.564Z,20.30
2022-11-24T02:14:45.890Z,20.29
2022-11-24T02:17:12.300Z,20.29
2022-11-24T02:19:54.001Z,20.29
2022-11-24T02:22:50.263Z,20.28
2022-11-24T02:25:26.011Z,20.28
2022-11-24T02:27:54.501Z,20.27
2022-11-24T02:30:21.300Z,20.28
2022-11-24T02:32:47.677Z,20.25
2022-11-24T02:35:14.598Z,20.27
2022-11-24T02:37:40.950Z,20.25
2022-11-24T02:40:08.136Z,20.25
2022-11-24T02:42:39.840Z,20.24
2022-11-24T02:45:08.212Z,20.23
2022-11-24T02:47:34.570Z,20.24
2022-11-24T02:50:00.923Z,20.23
2022-11-24T02:52:27.332Z,20.23
2022-11-24T02:54:53.686Z,20.22
2022-11-24T02:57:22.342Z,20.22
2022-11-24T02:59:48.810Z,20.21
2022-11-24T03:02:15.325Z,20.21
2022-11-24T03:04:41.731Z,20.21
2022-11-24T03:07:08.227Z,20.20
2022-11-24T03:09:34.641Z,20.19
2022-11-24T03:12:01.022Z,20.20
2022-11-24T03:14:27.369Z,20.19
2022-11-24T03:16:53.733Z,20.18
2022-11-24T03:19:20.151Z,20.17
2022-11-24T03:21:46.515Z,20.17
2022-11-24T03:24:12.900Z,20.18
2022-11-24T03:26:39.349Z,20.17
2022-11-24T03:29:05.726Z,20.16
2022-11-24T03:31:32.172Z,20.15
2022-11-24T03:33:58.589Z,20.15
2022-11-24T03:36:25.310Z,20.15
2022-11-24T03:38:51.687Z,20.14
2022-11-24T03:41:18.334Z,20.15
2022-11-24T03:43:44.742Z,20.14
2022-11-24T03:46:12.264Z,20.13
2022-11-24T03:48:38.846Z,20.14
2022-11-24T03:51:05.423Z,20.15
2022-11-24T03:53:33.572Z,20.13
2022-11-24T03:56:01.862Z,20.11
2022-11-24T03:58:29.136Z,20.12
2022-11-24T04:00:56.066Z,20.12
2022-11-24T04:03:23.148Z,20.12
2022-11-24T04:05:49.690Z,20.11
2022-11-24T04:08:16.713Z,20.10
2022-11-24T04:10:43.463Z,20.09
2022-11-24T04:13:18.396Z,20.10
2022-11-24T04:15:45.175Z,20.09
2022-11-24T04:18:12.882Z,20.09
2022-11-24T04:20:40.439Z,20.09
2022-11-24T04:23:07.256Z,20.06
2022-11-24T04:25:33.815Z,20.06
2022-11-24T04:28:00.149Z,20.07
2022-11-24T04:30:28.007Z,20.05
2022-11-24T04:32:54.748Z,20.06
2022-11-24T04:35:21.564Z,20.05
2022-11-24T04:37:47.926Z,20.04
2022-11-24T04:40:14.997Z,20.03
2022-11-24T04:42:41.463Z,20.04
2022-11-24T04:45:08.994Z,20.03
2022-11-24T04:47:35.461Z,20.03
2022-11-24T04:50:01.942Z,20.01
2022-11-24T04:52:29.775Z,20.02
2022-11-24T04:54:56.499Z,20.02
2022-11-24T04:57:25.739Z,20.02
2022-11-24T04:59:53.149Z,20.00
2022-11-24T05:02:19.989Z,20.00
2022-11-24T05:04:46.768Z,20.01
2022-11-24T05:07:19.194Z,20.00
2022-11-24T05:10:05.532Z,19.98
2022-11-24T05:12:32.053Z,19.99
2022-11-24T05:14:59.615Z,19.98
2022-11-24T05:17:37.215Z,19.97
2022-11-24T05:20:05.395Z,19.97
2022-11-24T05:22:31.913Z,19.96
2022-11-24T05:24:58.529Z,19.96
2022-11-24T05:27:25.107Z,19.95
2022-11-24T05:29:51.466Z,19.95
2022-11-24T05:32:17.857Z,19.94
2022-11-24T05:34:44.303Z,19.94
2022-11-24T05:37:10.695Z,19.93
2022-11-24T05:39:37.190Z,19.92
2022-11-24T05:42:25.577Z,19.91
2022-11-24T05:44:52.714Z,19.92
2022-11-24T05:47:19.896Z,19.92
2022-11-24T05:49:46.610Z,19.91
2022-11-24T05:52:12.932Z,19.92
2022-11-24T05:54:39.434Z,19.91
2022-11-24T05:57:05.781Z,19.89
2022-11-24T05:59:32.214Z,19.90
2022-11-24T06:01:58.728Z,19.89
2022-11-24T06:04:25.220Z,19.90
2022-11-24T06:06:51.701Z,19.88
2022-11-24T06:09:18.130Z,19.88
2022-11-24T06:11:44.482Z,19.87
2022-11-24T06:14:11.529Z,19.88
2022-11-24T06:16:38.380Z,19.88
2022-11-24T06:19:04.776Z,19.86
2022-11-24T06:21:31.720Z,19.85
2022-11-24T06:23:58.363Z,19.85
2022-11-24T06:26:24.672Z,19.86
2022-11-24T06:28:51.058Z,19.85
2022-11-24T06:31:17.513Z,19.84
2022-11-24T06:33:44.264Z,19.84
2022-11-24T06:36:13.644Z,19.85
2022-11-24T06:38:39.998Z,19.84
2022-11-24T06:41:14.806Z,19.84
2022-11-24T06:43:41.658Z,19.85
2022-11-24T06:46:08.274Z,19.85
2022-11-24T06:48:34.671Z,19.86
2022-11-24T06:51:02.815Z,19.85
2022-11-24T06:53:39.990Z,19.88
2022-11-24T06:56:16.250Z,19.88
2022-11-24T06:58:45.992Z,19.88
2022-11-24T07:01:23.370Z,19.89
2022-11-24T07:03:50.426Z,19.88
2022-11-24T07:06:18.494Z,19.88
2022-11-24T07:08:45.459Z,19.89
2022-11-24T07:11:15.521Z,19.88
2022-11-24T07:13:42.851Z,19.90
2022-11-24T07:16:24.245Z,19.90
2022-11-24T07:18:52.930Z,19.91
2022-11-24T07:21:21.138Z,19.91
2022-11-24T07:23:51.561Z,19.91
2022-11-24T07:26:19.001Z,19.90
2022-11-24T07:28:45.661Z,19.90
2022-11-24T07:31:15.062Z,19.92
2022-11-24T07:33:41.743Z,19.92
2022-11-24T07:36:09.050Z,19.95
2022-11-24T07:38:35.922Z,19.95
2022-11-24T07:41:08.154Z,19.95
2022-11-24T07:43:36.221Z,19.94
2022-11-24T07:46:03.284Z,19.95
2022-11-24T07:48:29.703Z,19.97
2022-11-24T07:50:59.140Z,19.98
2022-11-24T07:53:25.573Z,19.99
2022-11-24T07:55:58.043Z,20.01
2022-11-24T07:58:28.868Z,20.01
2022-11-24T08:00:58.412Z,20.02
2022-11-24T08:03:25.377Z,20.03
2022-11-24T08:08:43.146Z,20.04
2022-11-24T08:11:12.873Z,20.06
2022-11-24T08:13:39.530Z,20.05
2022-11-24T08:16:08.464Z,20.05
2022-11-24T08:18:36.258Z,20.03
2022-11-24T08:21:03.598Z,20.04
2022-11-24T08:23:30.810Z,20.04
2022-11-24T08:26:00.455Z,20.07
2022-11-24T08:28:26.758Z,20.06
2022-11-24T08:30:53.131Z,20.09
2022-11-24T08:33:19.516Z,20.09
2022-11-24T08:35:45.902Z,20.11
2022-11-24T08:38:12.230Z,20.12
2022-11-24T08:40:38.554Z,20.13
2022-11-24T08:43:04.938Z,20.13
2022-11-24T08:45:32.579Z,20.13
2022-11-24T08:48:01.719Z,20.15
2022-11-24T08:50:28.081Z,20.17
2022-11-24T08:52:54.399Z,20.17
2022-11-24T08:55:20.882Z,20.18
2022-11-24T08:57:47.266Z,20.18
2022-11-24T09:00:14.145Z,20.18
2022-11-24T09:02:42.410Z,20.17
2022-11-24T09:05:28.827Z,20.17
2022-11-24T09:07:55.266Z,20.18
2022-11-24T09:10:21.662Z,20.19
2022-11-24T09:12:48.315Z,20.20
2022-11-24T09:15:16.427Z,20.18
2022-11-24T09:17:43.639Z,20.19
2022-11-24T09:20:10.086Z,20.21
2022-11-24T09:22:38.007Z,20.19
2022-11-24T09:25:06.702Z,20.21
2022-11-24T09:27:33.077Z,20.22
2022-11-24T09:29:59.658Z,20.21
2022-11-24T09:32:25.958Z,20.23
2022-11-24T09:34:52.382Z,20.23
2022-11-24T09:37:18.786Z,20.23
2022-11-24T09:39:45.138Z,20.23
2022-11-24T09:42:26.177Z,20.23
2022-11-24T09:45:11.151Z,20.25
2022-11-24T09:48:03.455Z,20.24
2022-11-24T09:50:36.282Z,20.25
2022-11-24T09:53:05.632Z,20.23
2022-11-24T09:55:35.252Z,20.25
2022-11-24T09:58:21.399Z,20.25
2022-11-24T10:00:51.615Z,20.25
2022-11-24T10:03:50.278Z,20.25
2022-11-24T10:06:26.810Z,20.26
2022-11-24T10:09:08.489Z,20.26
2022-11-24T10:11:42.891Z,20.26
2022-11-24T10:14:22.209Z,20.28
2022-11-24T10:17:17.944Z,20.28
2022-11-24T10:20:08.754Z,20.29
2022-11-24T10:22:35.040Z,20.30
2022-11-24T10:25:44.235Z,20.29
2022-11-24T10:28:14.047Z,20.29
2022-11-24T10:30:41.068Z,20.31
2022-11-24T10:33:23.176Z,20.30
2022-11-24T10:36:07.462Z,20.32
2022-11-24T10:38:52.570Z,20.32
2022-11-24T10:41:26.292Z,20.33
2022-11-24T10:43:52.823Z,20.33
2022-11-24T10:46:29.545Z,20.34
2022-11-24T10:49:05.102Z,20.35
2022-11-24T10:51:46.484Z,20.36
2022-11-24T10:54:18.792Z,20.36
2022-11-24T10:56:46.788Z,20.39
2022-11-24T10:59:24.977Z,20.38
2022-11-24T11:01:53.049Z,20.39
2022-11-24T11:04:28.464Z,20.42
2022-11-24T11:07:17.415Z,20.43
2022-11-24T11:09:43.956Z,20.43
2022-11-24T11:12:43.966Z,20.43
2022-11-24T11:15:26.148Z,20.45
2022-11-24T11:17:57.911Z,20.47
2022-11-24T11:20:29.276Z,20.48
2022-11-24T11:22:58.163Z,20.51
2022-11-24T11:25:32.599Z,20.53
2022-11-24T11:28:21.703Z,20.55
2022-11-24T11:31:20.641Z,20.57
2022-11-24T11:34:23.467Z,20.58
2022-11-24T11:36:56.162Z,20.61
2022-11-24T11:39:31.292Z,20.62
2022-11-24T11:42:38.286Z,20.65
2022-11-24T11:45:26.370Z,20.67
2022-11-24T11:48:01.819Z,20.69
2022-11-24T11:51:06.597Z,20.70
2022-11-24T11:53:47.100Z,20.73
2022-11-24T11:56:24.705Z,20.75
2022-11-24T11:59:04.252Z,20.78
2022-11-24T12:01:38.681Z,20.79
2022-11-24T12:04:41.722Z,20.78
2022-11-24T12:07:46.214Z,20.80
2022-11-24T12:10:35.734Z,20.80
2022-11-24T12:13:14.359Z,20.82
2022-11-24T12:15:54.059Z,20.83
2022-11-24T12:18:58.804Z,20.83
2022-11-24T12:21:33.883Z,20.84
2022-11-24T12:24:21.679Z,20.84
2022-11-24T12:26:52.985Z,20.84
2022-11-24T12:29:49.387Z,20.83
2022-11-24T12:32:30.797Z,20.83
2022-11-24T12:35:14.605Z,20.81
2022-11-24T12:38:01.130Z,20.80
2022-11-24T12:40:46.978Z,20.79
2022-11-24T12:43:36.724Z,20.79
2022-11-24T12:46:19.401Z,20.78
2022-11-24T12:49:10.542Z,20.77
2022-11-24T12:51:42.091Z,20.76
2022-11-24T12:54:18.699Z,20.76
2022-11-24T12:56:56.118Z,20.77
2022-11-24T12:59:48.058Z,20.77
2022-11-24T13:02:36.391Z,20.78
2022-11-24T13:05:25.467Z,20.78
2022-11-24T13:07:58.403Z,20.81
2022-11-24T13:10:46.498Z,20.80
2022-11-24T13:13:13.174Z,20.81
2022-11-24T13:16:34.415Z,20.81
2022-11-24T13:18:53.480Z,20.83
2022-11-24T13:21:41.507Z,20.81
2022-11-24T13:24:17.786Z,20.79
2022-11-24T13:26:50.368Z,20.78
2022-11-24T13:29:32.605Z,20.76
2022-11-24T13:32:02.004Z,20.75
2022-11-24T13:34:43.548Z,20.74
2022-11-24T13:37:28.928Z,20.73
2022-11-24T13:40:23.038Z,20.71
2022-11-24T13:43:01.118Z,20.71
2022-11-24T13:45:39.696Z,20.72
2022-11-24T13:48:22.133Z,20.71
2022-11-24T13:50:53.910Z,20.71
2022-11-24T13:53:40.971Z,20.70
2022-11-24T13:56:22.730Z,20.69
2022-11-24T13:59:00.823Z,20.70
2022-11-24T14:01:31.017Z,20.69
2022-11-24T14:04:32.525Z,20.67
2022-11-24T14:07:08.279Z,20.65
2022-11-24T14:09:44.764Z,20.66
2022-11-24T14:12:22.485Z,20.66
2022-11-24T14:14:51.089Z,20.66
2022-11-24T14:17:28.390Z,20.66
2022-11-24T14:19:57.215Z,20.64
2022-11-24T14:22:27.632Z,20.63
2022-11-24T14:24:55.904Z,20.63
2022-11-24T14:27:28.295Z,20.65
2022-11-24T14:30:00.571Z,20.62
2022-11-24T14:32:27.545Z,20.63
2022-11-24T14:34:54.436Z,20.62
2022-11-24T14:37:21.146Z,20.61
2022-11-24T14:39:47.652Z,20.60
2022-11-24T14:42:25.047Z,20.58
2022-11-24T14:45:03.699Z,20.58
2022-11-24T14:47:32.920Z,20.58
2022-11-24T14:50:15.345Z,20.59
2022-11-24T14:52:56.709Z,20.59
2022-11-24T14:55:35.240Z,20.58
2022-11-24T14:58:01.743Z,20.57
2022-11-24T15:00:30.919Z,20.56
2022-11-24T15:03:00.056Z,20.55
2022-11-24T15:05:50.985Z,20.55
2022-11-24T15:08:17.886Z,20.55
2022-11-24T15:10:44.520Z,20.55
2022-11-24T15:13:20.750Z,20.55
2022-11-24T15:15:53.666Z,20.55
2022-11-24T15:18:43.254Z,20.55
2022-11-24T15:21:15.604Z,20.54
2022-11-24T15:24:04.715Z,20.53
2022-11-24T15:26:35.287Z,20.54
2022-11-24T15:29:04.795Z,20.54
2022-11-24T15:31:32.088Z,20.54
2022-11-24T15:33:58.484Z,20.53
2022-11-24T15:36:24.800Z,20.52
2022-11-24T15:38:52.086Z,20.51
2022-11-24T15:41:26.553Z,20.50
2022-11-24T15:43:58.825Z,20.49
2022-11-24T15:46:27.555Z,20.49
2022-11-24T15:48:53.971Z,20.48
2022-11-24T15:51:21.440Z,20.48
2022-11-24T15:54:00.761Z,20.47
2022-11-24T15:56:36.685Z,20.47
2022-11-24T15:59:03.878Z,20.46
2022-11-24T16:01:32.573Z,20.47
2022-11-24T16:03:59.711Z,20.46
2022-11-24T16:06:26.123Z,20.45
2022-11-24T16:08:56.068Z,20.44
2022-11-24T16:11:22.881Z,20.44
2022-11-24T16:13:53.014Z,20.46
2022-11-24T16:16:21.610Z,20.45
2022-11-24T16:18:48.111Z,20.45
2022-11-24T16:21:14.601Z,20.44
2022-11-24T16:23:41.053Z,20.44
2022-11-24T16:26:07.626Z,20.44
2022-11-24T16:28:34.166Z,20.44
2022-11-24T16:31:00.497Z,20.44
2022-11-24T16:33:28.840Z,20.43
2022-11-24T16:35:55.176Z,20.42
2022-11-24T16:38:21.617Z,20.43
2022-11-24T16:40:56.196Z,20.42
2022-11-24T16:43:22.688Z,20.42
2022-11-24T16:46:14.051Z,20.41
2022-11-24T16:48:40.443Z,20.42
2022-11-24T16:51:10.766Z,20.40
2022-11-24T16:53:38.025Z,20.38
2022-11-24T16:56:04.883Z,20.37
2022-11-24T16:58:31.231Z,20.38
2022-11-24T17:01:05.181Z,20.39
2022-11-24T17:03:33.431Z,20.37
2022-11-24T17:06:00.793Z,20.31
2022-11-24T17:08:30.709Z,20.27
2022-11-24T17:10:57.293Z,20.25
2022-11-24T17:13:24.223Z,20.23
2022-11-24T17:15:54.100Z,20.20
2022-11-24T17:18:25.262Z,20.23
2022-11-24T17:20:52.137Z,20.27
2022-11-24T17:23:19.467Z,20.26
2022-11-24T17:25:45.923Z,20.28
2022-11-24T17:28:12.234Z,20.30
2022-11-24T17:30:38.636Z,20.33
2022-11-24T17:33:05.703Z,20.34
2022-11-24T17:35:33.954Z,20.36
2022-11-24T17:38:01.110Z,20.37
2022-11-24T17:40:29.253Z,20.37
2022-11-24T17:43:00.218Z,20.36
2022-11-24T17:45:28.255Z,20.37
2022-11-24T17:47:55.195Z,20.38
2022-11-24T17:50:25.709Z,20.38
2022-11-24T17:52:53.520Z,20.38
2022-11-24T17:55:19.862Z,20.38
2022-11-24T17:57:46.263Z,20.40
2022-11-24T18:00:13.356Z,20.42
2022-11-24T18:02:39.797Z,20.41
2022-11-24T18:05:06.654Z,20.41
2022-11-24T18:07:35.585Z,20.41
2022-11-24T18:10:02.047Z,20.44
2022-11-24T18:12:28.402Z,20.42
2022-11-24T18:14:55.004Z,20.37
2022-11-24T18:17:21.446Z,20.37
2022-11-24T18:19:47.806Z,20.38
2022-11-24T18:22:14.114Z,20.37
2022-11-24T18:24:40.608Z,20.36
2022-11-24T18:27:07.187Z,20.36
2022-11-24T18:29:33.502Z,20.35
2022-11-24T18:32:00.211Z,20.35
2022-11-24T18:34:26.641Z,20.40
2022-11-24T18:36:53.030Z,20.45
2022-11-24T18:39:19.442Z,20.47
2022-11-24T18:41:46.590Z,20.49
2022-11-24T18:44:13.038Z,20.51
2022-11-24T18:46:39.484Z,20.52
2022-11-24T18:49:06.962Z,20.52
2022-11-24T18:51:34.082Z,20.54
2022-11-24T18:54:02.177Z,20.57
2022-11-24T18:56:29.070Z,20.58
2022-11-24T18:58:56.666Z,20.58
2022-11-24T19:01:28.818Z,20.57
2022-11-24T19:03:57.935Z,20.60
2022-11-24T19:06:28.842Z,20.61
2022-11-24T19:08:55.911Z,20.62
2022-11-24T19:11:25.461Z,20.62
2022-11-24T19:13:51.803Z,20.62
2022-11-24T19:16:20.285Z,20.63
2022-11-24T19:18:53.746Z,20.63
2022-11-24T19:21:21.214Z,20.64
2022-11-24T19:23:47.550Z,20.65
2022-11-24T19:26:14.082Z,20.66
2022-11-24T19:28:40.497Z,20.66
2022-11-24T19:31:10.052Z,20.68
2022-11-24T19:33:36.581Z,20.68
2022-11-24T19:36:05.879Z,20.67
2022-11-24T19:38:33.474Z,20.69
2022-11-24T19:41:02.170Z,20.69
2022-11-24T19:43:28.929Z,20.68
2022-11-24T19:46:00.718Z,20.70
2022-11-24T19:48:30.887Z,20.70
2022-11-24T19:51:05.990Z,20.70
2022-11-24T19:53:33.241Z,20.70
2022-11-24T19:56:12.467Z,20.71
2022-11-24T19:58:39.903Z,20.71
2022-11-24T20:01:17.731Z,20.71
2022-11-24T20:03:45.778Z,20.71
2022-11-24T20:06:13.978Z,20.72
2022-11-24T20:08:41.338Z,20.73
2022-11-24T20:11:10.020Z,20.72
2022-11-24T20:13:38.167Z,20.74
2022-11-24T20:16:10.892Z,20.72
2022-11-24T20:18:44.207Z,20.74
2022-11-24T20:21:11.762Z,20.75
2022-11-24T20:23:38.663Z,20.75
2022-11-24T20:26:06.403Z,20.77
2022-11-24T20:28:32.849Z,20.77
2022-11-24T20:31:12.121Z,20.77
2022-11-24T20:33:39.330Z,20.76
2022-11-24T20:36:14.022Z,20.77
2022-11-24T20:38:41.698Z,20.77
2022-11-24T20:41:10.957Z,20.79
2022-11-24T20:43:37.828Z,20.79
2022-11-24T20:46:10.279Z,20.80
2022-11-24T20:48:37.474Z,20.79
2022-11-24T20:51:13.113Z,20.81
2022-11-24T20:53:40.244Z,20.81
2022-11-24T20:56:09.929Z,20.82
2022-11-24T20:58:36.917Z,20.82
2022-11-24T21:01:08.418Z,20.82
2022-11-24T21:03:39.788Z,20.82
2022-11-24T21:06:09.292Z,20.82
2022-11-24T21:08:37.546Z,20.82
2022-11-24T21:11:05.490Z,20.82
2022-11-24T21:13:33.883Z,20.80
2022-11-24T21:16:01.211Z,20.81
2022-11-24T21:18:27.785Z,20.82
2022-11-24T21:20:54.135Z,20.82
2022-11-24T21:23:20.550Z,20.81
2022-11-24T21:25:46.917Z,20.83
2022-11-24T21:28:13.238Z,20.81
2022-11-24T21:30:39.699Z,20.81
2022-11-24T21:33:06.462Z,20.79
2022-11-24T21:35:36.711Z,20.79
2022-11-24T21:38:03.562Z,20.78
2022-11-24T21:40:30.214Z,20.77
2022-11-24T21:42:59.342Z,20.75
2022-11-24T21:45:26.169Z,20.77
2022-11-24T21:47:52.571Z,20.75
2022-11-24T21:50:18.881Z,20.75
2022-11-24T21:52:45.179Z,20.73
2022-11-24T21:55:11.531Z,20.70
2022-11-24T21:57:38.519Z,20.72
2022-11-24T22:00:06.778Z,20.72
2022-11-24T22:02:33.296Z,20.71
2022-11-24T22:04:59.642Z,20.71
2022-11-24T22:07:26.019Z,20.70
2022-11-24T22:09:52.428Z,20.69
2022-11-24T22:12:18.795Z,20.68
2022-11-24T22:14:45.640Z,20.67
2022-11-24T22:17:14.474Z,20.68
2022-11-24T22:19:40.908Z,20.65
2022-11-24T22:22:07.278Z,20.65
2022-11-24T22:24:33.657Z,20.63
2022-11-24T22:27:02.738Z,20.63
2022-11-24T22:29:29.305Z,20.63
2022-11-24T22:31:55.757Z,20.62
2022-11-24T22:34:22.117Z,20.62
2022-11-24T22:36:48.482Z,20.63
2022-11-24T22:39:14.964Z,20.62
2022-11-24T22:41:41.335Z,20.60
2022-11-24T22:44:07.837Z,20.60
2022-11-24T22:46:34.265Z,20.60
2022-11-24T22:49:01.318Z,20.61
2022-11-24T22:51:31.126Z,20.61
2022-11-24T22:54:00.089Z,20.60
2022-11-24T22:56:32.131Z,20.58
2022-11-24T22:58:59.722Z,20.58
2022-11-24T23:01:27.356Z,20.58
2022-11-24T23:03:54.646Z,20.57
2022-11-24T23:06:27.086Z,20.58
2022-11-24T23:08:54.634Z,20.56
2022-11-24T23:11:36.344Z,20.56
2022-11-24T23:14:04.881Z,20.57
2022-11-24T23:16:31.306Z,20.55
2022-11-24T23:18:58.007Z,20.56
2022-11-24T23:21:29.042Z,20.56
2022-11-24T23:23:56.313Z,20.55
2022-11-24T23:26:28.724Z,20.55
2022-11-24T23:28:55.485Z,20.55
2022-11-24T23:31:24.487Z,20.54
2022-11-24T23:33:50.947Z,20.54
2022-11-24T23:36:19.334Z,20.54
2022-11-24T23:38:46.401Z,20.53
2022-11-24T23:41:18.674Z,20.53
2022-11-24T23:43:45.202Z,20.53
2022-11-24T23:46:20.612Z,20.52
2022-11-24T23:48:47.213Z,20.53
2022-11-24T23:51:14.549Z,20.52
2022-11-24T23:53:41.594Z,20.52
2022-11-24T23:56:09.221Z,20.53
2022-11-24T23:58:35.571Z,20.52
